createdAt,value
2022-12-04T00:01:19.714Z,13.45
2022-12-04T00:03:49.542Z,12.02
2022-12-04T00:06:21.339Z,12.47
2022-12-04T00:08:53.878Z,12.50
2022-12-04T00:11:24.925Z,12.05
2022-12-04T00:13:54.392Z,11.40
2022-12-04T00:16:30.101Z,13.93
2022-12-04T00:19:00.272Z,13.93
2022-12-04T00:21:31.202Z,12.93
2022-12-04T00:24:00.734Z,13.75
2022-12-04T00:26:31.294Z,13.13
2022-12-04T00:29:01.609Z,12.52
2022-12-04T00:31:32.389Z,13.97
2022-12-04T00:34:02.506Z,13.00
2022-12-04T00:36:34.104Z,13.10
2022-12-04T00:39:05.281Z,13.32
2022-12-04T00:41:35.065Z,13.93
2022-12-04T00:44:05.161Z,12.77
2022-12-04T00:46:34.612Z,12.32
2022-12-04T00:49:04.241Z,13.35
2022-12-04T00:51:34.993Z,13.10
2022-12-04T00:54:04.352Z,11.82
2022-12-04T00:56:36.261Z,13.30
2022-12-04T00:59:05.709Z,13.02
2022-12-04T01:01:35.345Z,12.52
2022-12-04T01:04:08.133Z,13.80
2022-12-04T01:06:39.352Z,13.07
2022-12-04T01:09:09.195Z,13.00
2022-12-04T01:11:39.505Z,14.63
2022-12-04T01:14:10.349Z,12.27
2022-12-04T01:16:41.189Z,14.00
2022-12-04T01:19:14.209Z,13.73
2022-12-04T01:21:45.100Z,12.90
2022-12-04T01:24:14.624Z,12.38
2022-12-04T01:26:44.113Z,12.15
2022-12-04T01:29:13.574Z,13.52
2022-12-04T01:31:43.214Z,13.98
2022-12-04T01:34:13.249Z,12.60
2022-12-04T01:36:42.912Z,13.32
2022-12-04T01:39:13.957Z,13.57
2022-12-04T01:41:43.604Z,12.00
2022-12-04T01:44:16.764Z,15.52
2022-12-04T01:46:51.772Z,13.97
2022-12-04T01:49:25.563Z,13.30
2022-12-04T01:51:59.492Z,12.55
2022-12-04T01:54:33.702Z,15.68
2022-12-04T01:57:08.420Z,11.93
2022-12-04T01:59:45.122Z,14.27
2022-12-04T02:02:19.277Z,11.77
2022-12-04T02:04:49.910Z,11.43
2022-12-04T02:07:21.203Z,13.27
2022-12-04T02:09:56.464Z,12.80
2022-12-04T02:12:33.880Z,13.90
2022-12-04T02:15:10.542Z,13.20
2022-12-04T02:17:45.981Z,12.65
2022-12-04T02:20:24.723Z,13.95
2022-12-04T02:23:30.982Z,12.90
2022-12-04T02:26:18.314Z,13.33
2022-12-04T02:28:53.182Z,13.00
2022-12-04T02:31:29.120Z,11.50
2022-12-04T02:34:03.092Z,10.65
2022-12-04T02:36:37.921Z,10.50
2022-12-04T02:39:14.105Z,11.57
2022-12-04T02:41:48.480Z,9.80
2022-12-04T02:44:23.382Z,9.52
2022-12-04T02:46:59.347Z,11.63
2022-12-04T02:49:34.231Z,10.75
2022-12-04T02:52:09.485Z,9.93
2022-12-04T02:54:42.888Z,9.93
2022-12-04T02:57:16.786Z,10.68
2022-12-04T02:59:50.767Z,9.88
2022-12-04T03:02:26.773Z,9.63
2022-12-04T03:05:02.504Z,10.60
2022-12-04T03:08:21.901Z,11.38
2022-12-04T03:10:54.900Z,8.98
2022-12-04T03:13:30.701Z,9.50
2022-12-04T03:16:06.039Z,10.60
2022-12-04T03:18:42.769Z,8.63
2022-12-04T03:21:21.206Z,10.38
2022-12-04T03:23:56.615Z,10.13
2022-12-04T03:26:30.741Z,10.38
2022-12-04T03:29:08.674Z,10.13
2022-12-04T03:31:44.632Z,9.23
2022-12-04T03:34:17.437Z,10.32
2022-12-04T03:36:52.343Z,8.98
2022-12-04T03:39:26.689Z,8.90
2022-12-04T03:42:01.704Z,10.50
2022-12-04T03:44:40.372Z,8.73
2022-12-04T03:47:16.776Z,8.75
2022-12-04T03:49:51.101Z,8.02
2022-12-04T03:52:25.009Z,9.52
2022-12-04T03:55:02.602Z,10.10
2022-12-04T03:57:35.307Z,9.03
2022-12-04T04:00:10.292Z,8.57
2022-12-04T04:02:46.215Z,8.55
2022-12-04T04:05:17.094Z,9.63
2022-12-04T04:07:53.053Z,8.18
2022-12-04T04:10:26.265Z,9.23
2022-12-04T04:13:13.905Z,7.93
2022-12-04T04:16:05.539Z,7.53
2022-12-04T04:18:54.773Z,7.68
2022-12-04T04:21:48.639Z,6.97
2022-12-04T04:24:30.279Z,6.70
2022-12-04T04:27:00.982Z,6.25
2022-12-04T04:29:30.641Z,6.50
2022-12-04T04:32:06.607Z,6.97
2022-12-04T04:34:44.797Z,6.90
2022-12-04T04:37:23.549Z,7.37
2022-12-04T04:40:02.889Z,7.70
2022-12-04T04:42:36.483Z,6.65
2022-12-04T04:45:10.013Z,6.70
2022-12-04T04:47:45.761Z,7.55
2022-12-04T04:50:18.539Z,6.67
2022-12-04T04:52:51.489Z,7.15
2022-12-04T04:55:22.593Z,6.18
2022-12-04T04:57:52.622Z,6.38
2022-12-04T05:00:24.499Z,7.32
2022-12-04T05:02:54.699Z,6.73
2022-12-04T05:05:25.752Z,6.25
2022-12-04T05:07:55.127Z,6.38
2022-12-04T05:10:25.725Z,6.78
2022-12-04T05:12:55.172Z,6.68
2022-12-04T05:15:24.506Z,7.00
2022-12-04T05:17:53.974Z,5.80
2022-12-04T05:20:24.032Z,5.07
2022-12-04T05:22:53.484Z,6.03
2022-12-04T05:25:22.858Z,6.70
2022-12-04T05:27:52.289Z,5.67
2022-12-04T05:30:21.892Z,7.38
2022-12-04T05:32:51.460Z,6.55
2022-12-04T05:35:20.814Z,5.82
2022-12-04T05:37:51.671Z,6.38
2022-12-04T05:40:21.811Z,6.47
2022-12-04T05:42:51.232Z,5.38
2022-12-04T05:45:21.513Z,6.70
2022-12-04T05:47:51.059Z,5.63
2022-12-04T05:50:20.489Z,5.95
2022-12-04T05:52:49.935Z,6.27
2022-12-04T05:55:20.854Z,6.10
2022-12-04T05:57:50.293Z,6.68
2022-12-04T06:00:20.353Z,6.68
2022-12-04T06:02:49.838Z,6.93
2022-12-04T06:05:19.442Z,4.93
2022-12-04T06:07:48.895Z,5.45
2022-12-04T06:10:18.321Z,6.22
2022-12-04T06:12:49.265Z,5.63
2022-12-04T06:15:18.721Z,5.65
2022-12-04T06:17:51.449Z,4.77
2022-12-04T06:20:20.892Z,6.45
2022-12-04T06:22:50.430Z,6.30
2022-12-04T06:25:19.857Z,6.20
2022-12-04T06:27:50.690Z,7.25
2022-12-04T06:30:20.127Z,6.07
2022-12-04T06:32:49.713Z,5.50
2022-12-04T06:35:19.247Z,5.70
2022-12-04T06:37:48.614Z,6.55
2022-12-04T06:40:18.720Z,6.18
2022-12-04T06:42:48.338Z,6.43
2022-12-04T06:45:19.593Z,6.03
2022-12-04T06:47:49.113Z,6.90
2022-12-04T06:50:18.752Z,6.65
2022-12-04T06:52:48.312Z,6.60
2022-12-04T06:55:17.941Z,6.73
2022-12-04T06:57:47.783Z,6.38
2022-12-04T07:00:19.559Z,7.28
2022-12-04T07:02:49.298Z,6.93
2022-12-04T07:05:18.823Z,6.78
2022-12-04T07:07:48.560Z,6.70
2022-12-04T07:10:18.759Z,6.45
2022-12-04T07:12:48.501Z,7.32
2022-12-04T07:15:26.993Z,7.05
2022-12-04T07:17:56.758Z,6.82
2022-12-04T07:20:26.419Z,6.50
2022-12-04T07:22:56.914Z,6.88
2022-12-04T07:25:28.033Z,6.93
2022-12-04T07:27:57.982Z,7.38
2022-12-04T07:30:29.010Z,7.30
2022-12-04T07:32:58.390Z,7.63
2022-12-04T07:35:28.005Z,7.55
2022-12-04T07:37:57.512Z,6.65
2022-12-04T07:40:26.942Z,7.35
2022-12-04T07:42:56.876Z,6.22
2022-12-04T07:45:26.440Z,7.20
2022-12-04T07:47:57.291Z,7.72
2022-12-04T07:50:26.784Z,7.20
2022-12-04T07:52:56.301Z,6.30
2022-12-04T07:55:27.633Z,7.90
2022-12-04T07:57:57.163Z,7.40
2022-12-04T08:00:26.802Z,8.02
2022-12-04T08:02:58.135Z,8.27
2022-12-04T08:05:27.811Z,8.18
2022-12-04T08:07:57.516Z,8.48
2022-12-04T08:10:29.793Z,7.97
2022-12-04T08:12:59.541Z,7.15
2022-12-04T08:15:29.363Z,8.57
2022-12-04T08:18:00.453Z,8.18
2022-12-04T08:20:30.758Z,8.07
2022-12-04T08:23:00.315Z,8.53
2022-12-04T08:25:29.925Z,9.07
2022-12-04T08:27:59.574Z,9.20
2022-12-04T08:30:29.200Z,9.32
2022-12-04T08:33:00.846Z,10.23
2022-12-04T08:35:30.665Z,10.37
2022-12-04T08:38:00.381Z,8.38
2022-12-04T08:40:29.929Z,10.15
2022-12-04T08:43:01.905Z,10.98
2022-12-04T08:45:31.437Z,8.80
2022-12-04T08:48:02.412Z,10.53
2022-12-04T08:50:32.721Z,10.23
2022-12-04T08:53:02.242Z,9.10
2022-12-04T08:55:31.674Z,10.27
2022-12-04T08:58:01.122Z,9.15
2022-12-04T09:00:31.771Z,9.53
2022-12-04T09:03:03.033Z,11.27
2022-12-04T09:05:35.472Z,11.73
2022-12-04T09:08:04.991Z,8.88
2022-12-04T09:10:36.251Z,10.65
2022-12-04T09:13:08.474Z,11.20
2022-12-04T09:15:40.716Z,11.25
2022-12-04T09:18:14.182Z,12.50
2022-12-04T09:20:43.901Z,11.27
2022-12-04T09:23:13.345Z,12.23
2022-12-04T09:25:42.958Z,9.90
2022-12-04T09:28:12.773Z,11.35
2022-12-04T09:30:42.522Z,11.13
2022-12-04T09:33:13.633Z,10.35
2022-12-04T09:35:43.073Z,12.20
2022-12-04T09:38:12.449Z,11.83
2022-12-04T09:40:48.447Z,12.07
2022-12-04T09:43:28.077Z,11.68
2022-12-04T09:46:03.052Z,11.55
2022-12-04T09:48:39.264Z,11.88
2022-12-04T09:51:18.725Z,11.07
2022-12-04T09:53:56.045Z,10.70
2022-12-04T09:56:29.448Z,12.35
2022-12-04T09:59:07.234Z,12.13
2022-12-04T10:01:45.465Z,11.07
2022-12-04T10:04:24.014Z,11.67
2022-12-04T10:07:02.063Z,12.70
2022-12-04T10:09:39.570Z,12.98
2022-12-04T10:12:20.388Z,11.48
2022-12-04T10:15:05.259Z,9.60
2022-12-04T10:17:59.791Z,11.57
2022-12-04T10:20:52.177Z,11.18
2022-12-04T10:23:30.442Z,11.50
2022-12-04T10:26:02.012Z,10.15
2022-12-04T10:28:36.043Z,11.95
2022-12-04T10:31:09.234Z,11.23
2022-12-04T10:33:46.929Z,12.00
2022-12-04T10:36:25.807Z,11.93
2022-12-04T10:38:58.701Z,11.07
2022-12-04T10:41:35.189Z,12.27
2022-12-04T10:44:05.198Z,11.63
2022-12-04T10:46:36.962Z,11.15
2022-12-04T10:49:17.923Z,12.25
2022-12-04T10:51:50.770Z,10.55
2022-12-04T10:54:23.017Z,12.20
2022-12-04T10:56:54.815Z,10.70
2022-12-04T10:59:24.872Z,11.68
2022-12-04T11:02:06.752Z,12.45
2022-12-04T11:04:37.522Z,11.13
2022-12-04T11:07:12.424Z,11.05
2022-12-04T11:09:43.362Z,12.27
2022-12-04T11:12:22.714Z,12.25
2022-12-04T11:15:02.135Z,12.48
2022-12-04T11:17:32.071Z,10.13
2022-12-04T11:20:04.922Z,12.68
2022-12-04T11:22:39.148Z,12.37
2022-12-04T11:25:17.358Z,10.98
2022-12-04T11:27:49.934Z,11.52
2022-12-04T11:30:23.732Z,12.98
2022-12-04T11:32:55.608Z,12.48
2022-12-04T11:35:27.966Z,11.60
2022-12-04T11:38:01.132Z,11.27
2022-12-04T11:40:31.921Z,11.68
2022-12-04T11:43:06.224Z,12.63
2022-12-04T11:45:36.219Z,11.40
2022-12-04T11:48:18.717Z,11.80
2022-12-04T11:50:55.062Z,13.43
2022-12-04T11:53:35.559Z,11.15
2022-12-04T11:56:22.480Z,12.65
2022-12-04T11:59:45.763Z,11.43
2022-12-04T12:02:36.573Z,11.43
2022-12-04T12:05:33.472Z,11.23
2022-12-04T12:08:10.086Z,11.65
2022-12-04T12:10:48.050Z,10.90
2022-12-04T12:13:24.642Z,11.45
2022-12-04T12:16:03.832Z,11.70
2022-12-04T12:18:55.694Z,12.30
2022-12-04T12:21:27.983Z,11.93
2022-12-04T12:24:18.831Z,11.10
2022-12-04T12:26:59.332Z,13.48
2022-12-04T12:29:46.902Z,12.20
2022-12-04T12:32:33.747Z,12.23
2022-12-04T12:35:05.260Z,11.48
2022-12-04T12:37:43.245Z,11.32
2022-12-04T12:40:16.903Z,11.63
2022-12-04T12:42:58.398Z,13.53
2022-12-04T12:45:36.629Z,12.27
2022-12-04T12:48:13.758Z,10.27
2022-12-04T12:50:54.744Z,11.63
2022-12-04T12:53:39.772Z,12.85
2022-12-04T12:56:13.287Z,13.47
2022-12-04T12:58:51.352Z,11.85
2022-12-04T13:01:26.870Z,10.45
2022-12-04T13:04:01.813Z,14.25
2022-12-04T13:06:37.668Z,12.38
2022-12-04T13:09:13.288Z,12.63
2022-12-04T13:11:45.215Z,13.25
2022-12-04T13:14:16.333Z,12.10
2022-12-04T13:16:49.972Z,12.02
2022-12-04T13:19:24.411Z,12.63
2022-12-04T13:22:02.832Z,13.57
2022-12-04T13:24:56.443Z,13.68
2022-12-04T13:27:39.533Z,12.32
2022-12-04T13:30:18.120Z,12.80
2022-12-04T13:33:16.066Z,11.85
2022-12-04T13:36:05.614Z,11.43
2022-12-04T13:38:47.484Z,11.98
2022-12-04T13:41:21.040Z,13.02
2022-12-04T13:43:51.756Z,11.00
2022-12-04T13:46:37.753Z,14.15
2022-12-04T13:49:23.019Z,14.37
2022-12-04T13:51:57.624Z,14.07
2022-12-04T13:54:30.823Z,13.23
2022-12-04T13:57:22.532Z,12.18
2022-12-04T14:00:05.359Z,12.57
2022-12-04T14:02:51.041Z,12.07
2022-12-04T14:05:29.248Z,12.32
2022-12-04T14:08:07.614Z,11.77
2022-12-04T14:10:40.579Z,11.60
2022-12-04T14:13:23.276Z,11.88
2022-12-04T14:16:05.762Z,13.67
2022-12-04T14:18:37.562Z,12.77
2022-12-04T14:21:08.959Z,13.27
2022-12-04T14:23:40.703Z,11.60
2022-12-04T14:26:22.552Z,12.73
2022-12-04T14:28:55.273Z,11.67
2022-12-04T14:31:34.825Z,11.52
2022-12-04T14:34:24.106Z,12.25
2022-12-04T14:36:56.622Z,11.88
2022-12-04T14:39:30.221Z,12.40
2022-12-04T14:42:13.484Z,11.60
2022-12-04T14:44:45.815Z,11.90
2022-12-04T14:47:27.933Z,11.70
2022-12-04T14:50:12.370Z,12.25
2022-12-04T14:52:47.486Z,11.93
2022-12-04T14:55:28.602Z,11.87
2022-12-04T14:58:24.209Z,10.02
2022-12-04T15:00:55.126Z,11.35
2022-12-04T15:03:26.202Z,10.57
2022-12-04T15:06:07.531Z,11.07
2022-12-04T15:08:49.473Z,11.23
2022-12-04T15:11:38.282Z,11.45
2022-12-04T15:14:14.633Z,10.45
2022-12-04T15:16:44.747Z,12.02
2022-12-04T15:19:21.430Z,11.98
2022-12-04T15:21:53.828Z,10.90
2022-12-04T15:24:24.641Z,10.25
2022-12-04T15:26:55.707Z,10.95
2022-12-04T15:29:29.912Z,13.18
2022-12-04T15:32:03.831Z,10.75
2022-12-04T15:34:41.214Z,10.73
2022-12-04T15:37:20.840Z,12.55
2022-12-04T15:39:52.621Z,11.48
2022-12-04T15:42:28.850Z,11.43
2022-12-04T15:45:01.481Z,11.88
2022-12-04T15:47:34.872Z,11.67
2022-12-04T15:50:22.257Z,11.45
2022-12-04T15:53:02.243Z,11.00
2022-12-04T15:55:34.383Z,11.18
2022-12-04T15:58:12.193Z,11.48
2022-12-04T16:00:44.876Z,11.47
2022-12-04T16:03:28.698Z,10.77
2022-12-04T16:06:10.313Z,10.43
2022-12-04T16:08:46.278Z,9.63
2022-12-04T16:11:35.641Z,10.48
2022-12-04T16:14:20.178Z,10.23
2022-12-04T16:16:51.974Z,10.57
2022-12-04T16:19:32.562Z,10.88
2022-12-04T16:22:03.606Z,9.27
2022-12-04T16:24:37.024Z,10.35
2022-12-04T16:27:12.853Z,9.67
2022-12-04T16:29:42.767Z,10.45
2022-12-04T16:32:13.790Z,10.55
2022-12-04T16:34:43.845Z,9.73
2022-12-04T16:37:14.857Z,9.52
2022-12-04T16:39:48.880Z,10.73
2022-12-04T16:42:24.313Z,10.40
2022-12-04T16:44:57.413Z,9.73
2022-12-04T16:47:27.535Z,11.00
2022-12-04T16:49:57.227Z,10.48
2022-12-04T16:52:27.043Z,10.20
2022-12-04T16:55:03.038Z,9.57
2022-12-04T16:57:34.615Z,10.32
2022-12-04T17:00:10.611Z,10.13
2022-12-04T17:02:41.183Z,8.60
2022-12-04T17:05:20.376Z,9.57
2022-12-04T17:07:50.739Z,9.73
2022-12-04T17:10:24.264Z,9.75
2022-12-04T17:12:58.223Z,9.95
2022-12-04T17:15:31.022Z,9.27
2022-12-04T17:18:03.666Z,10.10
2022-12-04T17:20:37.451Z,9.65
2022-12-04T17:23:07.079Z,9.50
2022-12-04T17:25:38.430Z,9.30
2022-12-04T17:28:08.242Z,9.23
2022-12-04T17:30:38.060Z,10.33
2022-12-04T17:33:07.893Z,9.48
2022-12-04T17:35:37.593Z,9.77
2022-12-04T17:38:07.486Z,8.30
2022-12-04T17:40:38.717Z,8.35
2022-12-04T17:43:08.283Z,9.67
2022-12-04T17:45:42.916Z,8.75
2022-12-04T17:48:12.521Z,9.88
2022-12-04T17:50:42.232Z,10.40
2022-12-04T17:53:11.988Z,9.05
2022-12-04T17:55:43.064Z,8.90
2022-12-04T17:58:12.678Z,9.27
2022-12-04T18:00:42.511Z,9.68
2022-12-04T18:03:12.404Z,9.63
2022-12-04T18:05:42.023Z,9.32
2022-12-04T18:08:11.913Z,8.53
2022-12-04T18:10:43.212Z,9.40
2022-12-04T18:13:12.932Z,9.38
2022-12-04T18:15:43.119Z,9.13
2022-12-04T18:18:12.889Z,8.68
2022-12-04T18:20:42.582Z,9.90
2022-12-04T18:23:12.473Z,8.95
2022-12-04T18:25:43.624Z,9.32
2022-12-04T18:28:13.253Z,10.02
2022-12-04T18:30:42.731Z,9.48
2022-12-04T18:33:16.079Z,9.83
2022-12-04T18:35:58.402Z,9.52
2022-12-04T18:38:30.240Z,9.60
2022-12-04T18:41:08.529Z,9.18
2022-12-04T18:43:40.287Z,8.80
2022-12-04T18:46:14.837Z,8.63
2022-12-04T18:48:45.689Z,9.80
2022-12-04T18:51:23.303Z,9.25
2022-12-04T18:53:55.712Z,9.32
2022-12-04T18:56:27.104Z,8.43
2022-12-04T18:59:00.900Z,8.47
2022-12-04T19:01:31.784Z,8.75
2022-12-04T19:04:03.244Z,9.02
2022-12-04T19:06:34.550Z,9.48
2022-12-04T19:09:07.975Z,9.63
2022-12-04T19:11:44.022Z,10.50
2022-12-04T19:14:22.482Z,8.85
2022-12-04T19:16:53.186Z,8.30
2022-12-04T19:19:26.308Z,8.43
2022-12-04T19:21:59.349Z,8.60
2022-12-04T19:24:28.966Z,8.97
2022-12-04T19:27:01.995Z,8.35
2022-12-04T19:29:34.563Z,8.50
2022-12-04T19:32:04.442Z,8.50
2022-12-04T19:34:34.270Z,8.07
2022-12-04T19:37:05.113Z,9.83
2022-12-04T19:39:35.440Z,7.85
2022-12-04T19:42:06.974Z,8.20
2022-12-04T19:44:48.495Z,7.72
2022-12-04T19:47:20.522Z,8.23
2022-12-04T19:49:50.429Z,8.00
2022-12-04T19:52:20.179Z,7.22
2022-12-04T19:54:52.124Z,7.65
2022-12-04T19:57:25.822Z,7.93
2022-12-04T19:59:55.632Z,9.02
2022-12-04T20:02:28.180Z,9.20
2022-12-04T20:05:00.383Z,8.55
2022-12-04T20:07:30.033Z,8.93
2022-12-04T20:10:00.020Z,8.63
2022-12-04T20:12:31.879Z,8.27
2022-12-04T20:15:04.744Z,8.40
2022-12-04T20:17:34.538Z,8.35
2022-12-04T20:20:04.192Z,8.77
2022-12-04T20:22:35.167Z,8.88
2022-12-04T20:25:05.063Z,8.68
2022-12-04T20:27:36.231Z,8.90
2022-12-04T20:30:06.932Z,9.02
2022-12-04T20:32:39.147Z,9.65
2022-12-04T20:35:09.997Z,9.35
2022-12-04T20:37:39.622Z,9.95
2022-12-04T20:40:12.760Z,8.63
2022-12-04T20:42:44.048Z,9.85
2022-12-04T20:45:13.922Z,8.63
2022-12-04T20:47:43.492Z,9.13
2022-12-04T20:50:13.477Z,10.50
2022-12-04T20:52:43.194Z,8.30
2022-12-04T20:55:12.883Z,10.32
2022-12-04T20:57:44.056Z,10.10
2022-12-04T21:00:16.837Z,10.02
2022-12-04T21:02:46.704Z,9.57
2022-12-04T21:05:17.042Z,9.40
2022-12-04T21:07:49.709Z,9.48
2022-12-04T21:10:19.643Z,9.38
2022-12-04T21:13:08.207Z,9.63
2022-12-04T21:15:55.270Z,9.68
2022-12-04T21:18:25.112Z,9.67
2022-12-04T21:20:54.772Z,8.55
2022-12-04T21:23:26.651Z,10.18
2022-12-04T21:25:57.810Z,9.90
2022-12-04T21:28:29.070Z,9.13
2022-12-04T21:31:05.836Z,9.70
2022-12-04T21:33:36.144Z,9.82
2022-12-04T21:36:07.438Z,8.82
2022-12-04T21:38:37.851Z,8.73
2022-12-04T21:41:09.433Z,8.95
2022-12-04T21:43:43.282Z,8.67
2022-12-04T21:46:12.837Z,9.30
2022-12-04T21:48:44.353Z,9.40
2022-12-04T21:51:39.909Z,9.07
2022-12-04T21:54:03.728Z,9.73
2022-12-04T21:56:33.642Z,9.13
2022-12-04T21:59:06.419Z,9.60
2022-12-04T22:01:36.339Z,8.68
2022-12-04T22:04:06.217Z,8.10
2022-12-04T22:06:38.108Z,8.57
2022-12-04T22:09:09.889Z,9.87
2022-12-04T22:11:43.600Z,9.68
2022-12-04T22:14:14.869Z,9.98
2022-12-04T22:16:44.774Z,9.27
2022-12-04T22:19:16.125Z,9.70
2022-12-04T22:21:48.659Z,9.30
2022-12-04T22:24:18.421Z,9.40
2022-12-04T22:26:48.093Z,9.60
2022-12-04T22:29:49.735Z,10.57
2022-12-04T22:32:08.536Z,9.75
2022-12-04T22:34:37.892Z,10.13
2022-12-04T22:37:10.263Z,9.30
2022-12-04T22:39:39.689Z,9.52
2022-12-04T22:42:09.109Z,8.90
2022-12-04T22:44:40.021Z,9.98
2022-12-04T22:47:09.627Z,8.77
2022-12-04T22:49:39.212Z,9.38
2022-12-04T22:52:09.886Z,9.55
2022-12-04T22:54:39.513Z,9.73
2022-12-04T22:57:09.329Z,9.73
2022-12-04T22:59:42.661Z,9.60
2022-12-04T23:02:14.715Z,10.32
2022-12-04T23:04:44.772Z,8.70
2022-12-04T23:07:14.352Z,9.45
2022-12-04T23:09:43.974Z,9.70
2022-12-04T23:12:15.256Z,9.77
2022-12-04T23:14:47.882Z,10.35
2022-12-04T23:17:18.264Z,8.90
2022-12-04T23:19:47.745Z,9.57
2022-12-04T23:22:17.507Z,10.15
2022-12-04T23:24:47.340Z,10.43
2022-12-04T23:27:16.836Z,9.57
2022-12-04T23:29:55.205Z,10.18
2022-12-04T23:32:27.933Z,9.63
2022-12-04T23:34:57.731Z,10.68
2022-12-04T23:37:27.412Z,10.80
2022-12-04T23:40:02.093Z,9.80
2022-12-04T23:42:35.299Z,9.27
2022-12-04T23:45:09.072Z,10.07
2022-12-04T23:47:38.743Z,9.20
2022-12-04T23:50:09.391Z,9.50
2022-12-04T23:52:39.004Z,9.50
2022-12-04T23:55:11.689Z,9.82
2022-12-04T23:57:42.225Z,8.73
